sensor_id;sensor_type;location;lat;lon;timestamp;temperature;humidity
7163;DHT22;3623;47.098;15.446;2022-11-25T00:01:57;2.30;99.90
7163;DHT22;3623;47.098;15.446;2022-11-25T00:04:25;2.40;99.90
7163;DHT22;3623;47.098;15.446;2022-11-25T00:06:53;2.40;99.90
7163;DHT22;3623;47.098;15.446;2022-11-25T00:09:20;2.30;99.90
7163;DHT22;3623;47.098;15.446;2022-11-25T00:11:49;2.30;99.90
7163;DHT22;3623;47.098;15.446;2022-11-25T00:14:16;2.40;99.90
7163;DHT22;3623;47.098;15.446;2022-11-25T00:16:43;2.50;99.90
7163;DHT22;3623;47.098;15.446;2022-11-25T00:19:11;2.60;99.90
7163;DHT22;3623;47.098;15.446;2022-11-25T00:21:38;2.70;99.90
7163;DHT22;3623;47.098;15.446;2022-11-25T00:24:06;2.70;99.90
7163;DHT22;3623;47.098;15.446;2022-11-25T00:26:34;2.70;99.90
7163;DHT22;3623;47.098;15.446;2022-11-25T00:29:05;2.80;99.90
7163;DHT22;3623;47.098;15.446;2022-11-25T00:31:34;2.80;99.90
7163;DHT22;3623;47.098;15.446;2022-11-25T00:34:01;2.80;99.90
7163;DHT22;3623;47.098;15.446;2022-11-25T00:36:30;2.80;99.90
7163;DHT22;3623;47.098;15.446;2022-11-25T00:38:59;2.80;99.90
7163;DHT22;3623;47.098;15.446;2022-11-25T00:41:27;2.80;99.90
7163;DHT22;3623;47.098;15.446;2022-11-25T00:44:15;2.70;99.90
7163;DHT22;3623;47.098;15.446;2022-11-25T00:47:00;2.70;99.90
7163;DHT22;3623;47.098;15.446;2022-11-25T00:49:27;2.60;99.90
7163;DHT22;3623;47.098;15.446;2022-11-25T00:51:54;2.60;99.90
7163;DHT22;3623;47.098;15.446;2022-11-25T00:54:22;2.50;99.90
7163;DHT22;3623;47.098;15.446;2022-11-25T00:56:49;2.50;99.90
7163;DHT22;3623;47.098;15.446;2022-11-25T00:59:17;2.50;99.90
7163;DHT22;3623;47.098;15.446;2022-11-25T01:01:45;2.50;99.90
7163;DHT22;3623;47.098;15.446;2022-11-25T01:04:12;2.60;99.90
7163;DHT22;3623;47.098;15.446;2022-11-25T01:06:39;2.70;99.90
7163;DHT22;3623;47.098;15.446;2022-11-25T01:09:07;2.80;99.90
7163;DHT22;3623;47.098;15.446;2022-11-25T01:11:34;2.90;99.90
7163;DHT22;3623;47.098;15.446;2022-11-25T01:14:02;2.90;99.90
7163;DHT22;3623;47.098;15.446;2022-11-25T01:16:31;3.00;99.90
7163;DHT22;3623;47.098;15.446;2022-11-25T01:18:58;2.90;99.90
7163;DHT22;3623;47.098;15.446;2022-11-25T01:21:27;2.90;99.90
7163;DHT22;3623;47.098;15.446;2022-11-25T01:23:55;2.80;99.90
7163;DHT22;3623;47.098;15.446;2022-11-25T01:26:23;2.80;99.90
7163;DHT22;3623;47.098;15.446;2022-11-25T01:28:53;2.80;99.90
7163;DHT22;3623;47.098;15.446;2022-11-25T01:31:22;2.90;99.90
7163;DHT22;3623;47.098;15.446;2022-11-25T01:33:54;2.90;99.90
7163;DHT22;3623;47.098;15.446;2022-11-25T01:36:23;2.80;99.90
7163;DHT22;3623;47.098;15.446;2022-11-25T01:38:51;2.70;99.90
7163;DHT22;3623;47.098;15.446;2022-11-25T01:41:19;2.50;99.90
7163;DHT22;3623;47.098;15.446;2022-11-25T01:44:06;2.30;99.90
7163;DHT22;3623;47.098;15.446;2022-11-25T01:46:48;2.10;99.90
7163;DHT22;3623;47.098;15.446;2022-11-25T01:49:21;1.90;99.90
7163;DHT22;3623;47.098;15.446;2022-11-25T01:51:52;1.80;99.90
7163;DHT22;3623;47.098;15.446;2022-11-25T01:54:23;1.90;99.90
7163;DHT22;3623;47.098;15.446;2022-11-25T01:56:53;1.90;99.90
7163;DHT22;3623;47.098;15.446;2022-11-25T01:59:22;2.10;99.90
7163;DHT22;3623;47.098;15.446;2022-11-25T02:01:50;2.20;99.90
7163;DHT22;3623;47.098;15.446;2022-11-25T02:04:22;2.30;99.90
7163;DHT22;3623;47.098;15.446;2022-11-25T02:06:54;2.40;99.90
7163;DHT22;3623;47.098;15.446;2022-11-25T02:09:23;2.50;99.90
7163;DHT22;3623;47.098;15.446;2022-11-25T02:11:51;2.50;99.90
7163;DHT22;3623;47.098;15.446;2022-11-25T02:14:19;2.60;99.90
7163;DHT22;3623;47.098;15.446;2022-11-25T02:16:47;2.60;99.90
7163;DHT22;3623;47.098;15.446;2022-11-25T02:19:22;2.60;99.90
7163;DHT22;3623;47.098;15.446;2022-11-25T02:21:53;2.60;99.90
7163;DHT22;3623;47.098;15.446;2022-11-25T02:24:28;2.60;99.90
7163;DHT22;3623;47.098;15.446;2022-11-25T02:26:58;2.60;99.90
7163;DHT22;3623;47.098;15.446;2022-11-25T02:29:26;2.60;99.90
7163;DHT22;3623;47.098;15.446;2022-11-25T02:31:54;2.60;99.90
7163;DHT22;3623;47.098;15.446;2022-11-25T02:34:21;2.60;99.90
7163;DHT22;3623;47.098;15.446;2022-11-25T02:36:48;2.70;99.90
7163;DHT22;3623;47.098;15.446;2022-11-25T02:39:17;2.60;99.90
7163;DHT22;3623;47.098;15.446;2022-11-25T02:41:48;2.50;99.90
7163;DHT22;3623;47.098;15.446;2022-11-25T02:44:18;2.50;99.90
7163;DHT22;3623;47.098;15.446;2022-11-25T02:46:45;2.40;99.90
7163;DHT22;3623;47.098;15.446;2022-11-25T02:49:12;2.20;99.90
7163;DHT22;3623;47.098;15.446;2022-11-25T02:51:41;2.10;99.90
7163;DHT22;3623;47.098;15.446;2022-11-25T02:54:10;1.90;99.90
7163;DHT22;3623;47.098;15.446;2022-11-25T02:56:38;1.90;99.90
7163;DHT22;3623;47.098;15.446;2022-11-25T02:59:06;1.80;99.90
7163;DHT22;3623;47.098;15.446;2022-11-25T03:01:34;1.90;99.90
7163;DHT22;3623;47.098;15.446;2022-11-25T03:04:03;2.00;99.90
7163;DHT22;3623;47.098;15.446;2022-11-25T03:06:30;2.00;99.90
7163;DHT22;3623;47.098;15.446;2022-11-25T03:08:57;2.10;99.90
7163;DHT22;3623;47.098;15.446;2022-11-25T03:11:25;2.20;99.90
7163;DHT22;3623;47.098;15.446;2022-11-25T03:14:12;2.20;99.90
7163;DHT22;3623;47.098;15.446;2022-11-25T03:16:41;2.20;99.90
7163;DHT22;3623;47.098;15.446;2022-11-25T03:19:08;2.10;99.90
7163;DHT22;3623;47.098;15.446;2022-11-25T03:21:36;2.10;99.90
7163;DHT22;3623;47.098;15.446;2022-11-25T03:24:03;2.10;99.90
7163;DHT22;3623;47.098;15.446;2022-11-25T03:26:30;2.10;99.90
7163;DHT22;3623;47.098;15.446;2022-11-25T03:28:57;2.20;99.90
7163;DHT22;3623;47.098;15.446;2022-11-25T03:31:25;2.10;99.90
7163;DHT22;3623;47.098;15.446;2022-11-25T03:33:54;2.10;99.90
7163;DHT22;3623;47.098;15.446;2022-11-25T03:36:21;2.00;99.90
7163;DHT22;3623;47.098;15.446;2022-11-25T03:38:48;2.00;99.90
7163;DHT22;3623;47.098;15.446;2022-11-25T03:41:15;2.00;99.90
7163;DHT22;3623;47.098;15.446;2022-11-25T03:43:42;2.00;99.90
7163;DHT22;3623;47.098;15.446;2022-11-25T03:46:10;2.00;99.90
7163;DHT22;3623;47.098;15.446;2022-11-25T03:48:37;1.90;99.90
7163;DHT22;3623;47.098;15.446;2022-11-25T03:51:06;1.90;99.90
7163;DHT22;3623;47.098;15.446;2022-11-25T03:53:33;1.90;99.90
7163;DHT22;3623;47.098;15.446;2022-11-25T03:56:00;1.90;99.90
7163;DHT22;3623;47.098;15.446;2022-11-25T03:58:27;1.90;99.90
7163;DHT22;3623;47.098;15.446;2022-11-25T04:00:58;1.90;99.90
7163;DHT22;3623;47.098;15.446;2022-11-25T04:03:26;1.80;99.90
7163;DHT22;3623;47.098;15.446;2022-11-25T04:05:53;1.70;99.90
7163;DHT22;3623;47.098;15.446;2022-11-25T04:08:22;1.70;99.90
7163;DHT22;3623;47.098;15.446;2022-11-25T04:10:49;1.70;99.90
7163;DHT22;3623;47.098;15.446;2022-11-25T04:13:17;1.70;99.90
7163;DHT22;3623;47.098;15.446;2022-11-25T04:15:44;1.80;99.90
7163;DHT22;3623;47.098;15.446;2022-11-25T04:18:12;1.70;99.90
7163;DHT22;3623;47.098;15.446;2022-11-25T04:20:39;1.70;99.90
7163;DHT22;3623;47.098;15.446;2022-11-25T04:23:07;1.70;99.90
7163;DHT22;3623;47.098;15.446;2022-11-25T04:25:36;1.70;99.90
7163;DHT22;3623;47.098;15.446;2022-11-25T04:28:03;1.80;99.90
7163;DHT22;3623;47.098;15.446;2022-11-25T04:30:32;1.80;99.90
7163;DHT22;3623;47.098;15.446;2022-11-25T04:32:59;2.00;99.90
7163;DHT22;3623;47.098;15.446;2022-11-25T04:35:26;1.80;99.90
7163;DHT22;3623;47.098;15.446;2022-11-25T04:37:53;1.80;99.90
7163;DHT22;3623;47.098;15.446;2022-11-25T04:40:21;1.80;99.90
7163;DHT22;3623;47.098;15.446;2022-11-25T04:42:49;1.70;99.90
7163;DHT22;3623;47.098;15.446;2022-11-25T04:45:17;1.60;99.90
7163;DHT22;3623;47.098;15.446;2022-11-25T04:47:44;1.70;99.90
7163;DHT22;3623;47.098;15.446;2022-11-25T04:50:14;1.60;99.90
7163;DHT22;3623;47.098;15.446;2022-11-25T04:52:41;1.60;99.90
7163;DHT22;3623;47.098;15.446;2022-11-25T04:55:09;1.60;99.90
7163;DHT22;3623;47.098;15.446;2022-11-25T04:57:36;1.60;99.90
7163;DHT22;3623;47.098;15.446;2022-11-25T05:00:07;1.50;99.90
7163;DHT22;3623;47.098;15.446;2022-11-25T05:02:34;1.50;99.90
7163;DHT22;3623;47.098;15.446;2022-11-25T05:05:02;1.50;99.90
7163;DHT22;3623;47.098;15.446;2022-11-25T05:07:29;1.50;99.90
7163;DHT22;3623;47.098;15.446;2022-11-25T05:09:56;1.70;99.90
7163;DHT22;3623;47.098;15.446;2022-11-25T05:12:26;1.40;99.90
7163;DHT22;3623;47.098;15.446;2022-11-25T05:14:54;1.50;99.90
7163;DHT22;3623;47.098;15.446;2022-11-25T05:17:25;1.50;99.90
7163;DHT22;3623;47.098;15.446;2022-11-25T05:19:53;1.50;99.90
7163;DHT22;3623;47.098;15.446;2022-11-25T05:22:21;1.50;99.90
7163;DHT22;3623;47.098;15.446;2022-11-25T05:24:49;1.50;99.90
7163;DHT22;3623;47.098;15.446;2022-11-25T05:27:17;1.50;99.90
7163;DHT22;3623;47.098;15.446;2022-11-25T05:29:44;1.60;99.90
7163;DHT22;3623;47.098;15.446;2022-11-25T05:32:11;1.60;99.90
7163;DHT22;3623;47.098;15.446;2022-11-25T05:34:40;1.50;99.90
7163;DHT22;3623;47.098;15.446;2022-11-25T05:37:08;1.60;99.90
7163;DHT22;3623;47.098;15.446;2022-11-25T05:39:35;1.70;99.90
7163;DHT22;3623;47.098;15.446;2022-11-25T05:42:03;1.60;99.90
7163;DHT22;3623;47.098;15.446;2022-11-25T05:44:30;1.50;99.90
7163;DHT22;3623;47.098;15.446;2022-11-25T05:46:57;1.70;99.90
7163;DHT22;3623;47.098;15.446;2022-11-25T05:49:24;1.50;99.90
7163;DHT22;3623;47.098;15.446;2022-11-25T05:51:53;1.50;99.90
7163;DHT22;3623;47.098;15.446;2022-11-25T05:54:20;1.50;99.90
7163;DHT22;3623;47.098;15.446;2022-11-25T05:56:47;1.50;99.90
7163;DHT22;3623;47.098;15.446;2022-11-25T05:59:14;1.40;99.90
7163;DHT22;3623;47.098;15.446;2022-11-25T06:01:41;1.20;99.90
7163;DHT22;3623;47.098;15.446;2022-11-25T06:04:09;1.10;99.90
7163;DHT22;3623;47.098;15.446;2022-11-25T06:06:37;1.10;99.90
7163;DHT22;3623;47.098;15.446;2022-11-25T06:09:06;1.00;99.90
7163;DHT22;3623;47.098;15.446;2022-11-25T06:11:33;0.90;99.90
7163;DHT22;3623;47.098;15.446;2022-11-25T06:14:00;0.90;99.90
7163;DHT22;3623;47.098;15.446;2022-11-25T06:16:27;0.80;99.90
7163;DHT22;3623;47.098;15.446;2022-11-25T06:18:54;0.90;99.90
7163;DHT22;3623;47.098;15.446;2022-11-25T06:21:21;0.70;99.90
7163;DHT22;3623;47.098;15.446;2022-11-25T06:23:48;0.70;99.90
7163;DHT22;3623;47.098;15.446;2022-11-25T06:26:19;0.70;99.90
7163;DHT22;3623;47.098;15.446;2022-11-25T06:28:47;0.70;99.90
7163;DHT22;3623;47.098;15.446;2022-11-25T06:31:17;0.70;99.90
7163;DHT22;3623;47.098;15.446;2022-11-25T06:33:46;0.80;99.90
7163;DHT22;3623;47.098;15.446;2022-11-25T06:36:13;0.90;99.90
7163;DHT22;3623;47.098;15.446;2022-11-25T06:38:43;1.00;99.90
7163;DHT22;3623;47.098;15.446;2022-11-25T06:41:10;1.00;99.90
7163;DHT22;3623;47.098;15.446;2022-11-25T06:43:39;1.40;99.90
7163;DHT22;3623;47.098;15.446;2022-11-25T06:46:09;1.20;99.90
7163;DHT22;3623;47.098;15.446;2022-11-25T06:48:37;1.20;99.90
7163;DHT22;3623;47.098;15.446;2022-11-25T06:51:06;1.20;99.90
7163;DHT22;3623;47.098;15.446;2022-11-25T06:53:34;1.20;99.90
7163;DHT22;3623;47.098;15.446;2022-11-25T06:56:07;1.20;99.90
7163;DHT22;3623;47.098;15.446;2022-11-25T06:58:34;1.20;99.90
7163;DHT22;3623;47.098;15.446;2022-11-25T07:01:05;1.20;99.90
7163;DHT22;3623;47.098;15.446;2022-11-25T07:03:33;1.10;99.90
7163;DHT22;3623;47.098;15.446;2022-11-25T07:06:01;1.10;99.90
7163;DHT22;3623;47.098;15.446;2022-11-25T07:08:29;1.20;99.90
7163;DHT22;3623;47.098;15.446;2022-11-25T07:11:02;1.20;99.90
7163;DHT22;3623;47.098;15.446;2022-11-25T07:13:29;1.20;99.90
7163;DHT22;3623;47.098;15.446;2022-11-25T07:15:59;1.10;99.90
7163;DHT22;3623;47.098;15.446;2022-11-25T07:18:30;1.10;99.90
7163;DHT22;3623;47.098;15.446;2022-11-25T07:21:02;0.90;99.90
7163;DHT22;3623;47.098;15.446;2022-11-25T07:23:29;1.00;99.90
7163;DHT22;3623;47.098;15.446;2022-11-25T07:26:01;1.00;99.90
7163;DHT22;3623;47.098;15.446;2022-11-25T07:28:28;1.10;99.90
7163;DHT22;3623;47.098;15.446;2022-11-25T07:30:55;1.20;99.90
7163;DHT22;3623;47.098;15.446;2022-11-25T07:33:30;1.30;99.90
7163;DHT22;3623;47.098;15.446;2022-11-25T07:36:00;1.40;99.90
7163;DHT22;3623;47.098;15.446;2022-11-25T07:38:28;1.50;99.90
7163;DHT22;3623;47.098;15.446;2022-11-25T07:40:55;1.70;99.90
7163;DHT22;3623;47.098;15.446;2022-11-25T07:43:22;1.80;99.90
7163;DHT22;3623;47.098;15.446;2022-11-25T07:45:49;1.90;99.90
7163;DHT22;3623;47.098;15.446;2022-11-25T07:48:16;2.10;99.90
7163;DHT22;3623;47.098;15.446;2022-11-25T07:50:45;2.20;99.90
7163;DHT22;3623;47.098;15.446;2022-11-25T07:53:14;2.40;99.90
7163;DHT22;3623;47.098;15.446;2022-11-25T07:55:41;2.50;99.90
7163;DHT22;3623;47.098;15.446;2022-11-25T07:58:08;2.60;99.90
7163;DHT22;3623;47.098;15.446;2022-11-25T08:00:36;2.80;99.90
7163;DHT22;3623;47.098;15.446;2022-11-25T08:03:03;2.90;99.90
7163;DHT22;3623;47.098;15.446;2022-11-25T08:05:32;3.00;99.90
7163;DHT22;3623;47.098;15.446;2022-11-25T08:08:00;3.20;99.90
7163;DHT22;3623;47.098;15.446;2022-11-25T08:10:27;3.30;99.90
7163;DHT22;3623;47.098;15.446;2022-11-25T08:12:54;3.30;99.90
7163;DHT22;3623;47.098;15.446;2022-11-25T08:15:22;3.40;99.90
7163;DHT22;3623;47.098;15.446;2022-11-25T08:17:49;3.40;99.90
7163;DHT22;3623;47.098;15.446;2022-11-25T08:20:17;3.50;99.90
7163;DHT22;3623;47.098;15.446;2022-11-25T08:22:44;3.70;99.90
7163;DHT22;3623;47.098;15.446;2022-11-25T08:25:13;3.90;99.90
7163;DHT22;3623;47.098;15.446;2022-11-25T08:27:40;4.30;99.90
7163;DHT22;3623;47.098;15.446;2022-11-25T08:30:08;4.70;99.90
7163;DHT22;3623;47.098;15.446;2022-11-25T08:32:36;5.10;99.90
7163;DHT22;3623;47.098;15.446;2022-11-25T08:35:04;5.30;99.90
7163;DHT22;3623;47.098;15.446;2022-11-25T08:37:32;5.40;99.90
7163;DHT22;3623;47.098;15.446;2022-11-25T08:39:59;5.20;99.90
7163;DHT22;3623;47.098;15.446;2022-11-25T08:42:27;5.00;99.90
7163;DHT22;3623;47.098;15.446;2022-11-25T08:44:55;4.70;99.90
7163;DHT22;3623;47.098;15.446;2022-11-25T08:47:23;4.60;99.90
7163;DHT22;3623;47.098;15.446;2022-11-25T08:49:50;4.60;99.90
7163;DHT22;3623;47.098;15.446;2022-11-25T08:52:18;4.60;99.90
7163;DHT22;3623;47.098;15.446;2022-11-25T08:54:45;4.60;99.90
7163;DHT22;3623;47.098;15.446;2022-11-25T08:57:13;4.60;99.90
7163;DHT22;3623;47.098;15.446;2022-11-25T08:59:41;4.50;99.90
7163;DHT22;3623;47.098;15.446;2022-11-25T09:02:11;4.60;99.90
7163;DHT22;3623;47.098;15.446;2022-11-25T09:04:40;4.70;99.90
7163;DHT22;3623;47.098;15.446;2022-11-25T09:07:07;4.70;99.90
7163;DHT22;3623;47.098;15.446;2022-11-25T09:09:35;4.80;99.90
7163;DHT22;3623;47.098;15.446;2022-11-25T09:12:02;5.00;99.90
7163;DHT22;3623;47.098;15.446;2022-11-25T09:14:29;5.20;99.90
7163;DHT22;3623;47.098;15.446;2022-11-25T09:16:58;5.50;99.90
7163;DHT22;3623;47.098;15.446;2022-11-25T09:19:27;6.20;99.90
7163;DHT22;3623;47.098;15.446;2022-11-25T09:21:54;6.90;99.90
7163;DHT22;3623;47.098;15.446;2022-11-25T09:24:21;6.80;99.90
7163;DHT22;3623;47.098;15.446;2022-11-25T09:26:48;6.50;99.90
7163;DHT22;3623;47.098;15.446;2022-11-25T09:29:15;6.30;99.90
7163;DHT22;3623;47.098;15.446;2022-11-25T09:31:43;6.20;99.90
7163;DHT22;3623;47.098;15.446;2022-11-25T09:34:11;6.20;99.90
7163;DHT22;3623;47.098;15.446;2022-11-25T09:36:38;6.30;99.90
7163;DHT22;3623;47.098;15.446;2022-11-25T09:39:06;6.50;99.90
7163;DHT22;3623;47.098;15.446;2022-11-25T09:41:55;6.80;99.90
7163;DHT22;3623;47.098;15.446;2022-11-25T09:44:51;7.20;99.90
7163;DHT22;3623;47.098;15.446;2022-11-25T09:47:49;7.10;99.90
7163;DHT22;3623;47.098;15.446;2022-11-25T09:50:27;7.10;99.90
7163;DHT22;3623;47.098;15.446;2022-11-25T09:53:02;7.20;99.90
7163;DHT22;3623;47.098;15.446;2022-11-25T09:55:36;7.60;99.90
7163;DHT22;3623;47.098;15.446;2022-11-25T09:58:15;8.20;99.90
7163;DHT22;3623;47.098;15.446;2022-11-25T10:00:47;8.60;99.90
7163;DHT22;3623;47.098;15.446;2022-11-25T10:03:22;8.70;99.90
7163;DHT22;3623;47.098;15.446;2022-11-25T10:05:57;9.20;99.90
7163;DHT22;3623;47.098;15.446;2022-11-25T10:08:29;9.70;99.90
7163;DHT22;3623;47.098;15.446;2022-11-25T10:11:02;9.80;99.90
7163;DHT22;3623;47.098;15.446;2022-11-25T10:13:39;9.70;99.90
7163;DHT22;3623;47.098;15.446;2022-11-25T10:16:27;10.00;99.90
7163;DHT22;3623;47.098;15.446;2022-11-25T10:18:59;10.00;99.90
7163;DHT22;3623;47.098;15.446;2022-11-25T10:21:28;10.10;99.90
7163;DHT22;3623;47.098;15.446;2022-11-25T10:23:56;9.90;99.90
7163;DHT22;3623;47.098;15.446;2022-11-25T10:26:28;9.90;99.90
7163;DHT22;3623;47.098;15.446;2022-11-25T10:29:13;10.20;99.90
7163;DHT22;3623;47.098;15.446;2022-11-25T10:31:43;10.80;99.90
7163;DHT22;3623;47.098;15.446;2022-11-25T10:34:16;11.40;99.90
7163;DHT22;3623;47.098;15.446;2022-11-25T10:36:49;11.70;99.90
7163;DHT22;3623;47.098;15.446;2022-11-25T10:39:20;11.80;99.90
7163;DHT22;3623;47.098;15.446;2022-11-25T10:41:55;12.40;99.90
7163;DHT22;3623;47.098;15.446;2022-11-25T10:44:25;12.90;99.90
7163;DHT22;3623;47.098;15.446;2022-11-25T10:47:03;13.00;99.90
7163;DHT22;3623;47.098;15.446;2022-11-25T10:49:40;13.20;99.90
7163;DHT22;3623;47.098;15.446;2022-11-25T10:52:11;13.60;99.90
7163;DHT22;3623;47.098;15.446;2022-11-25T10:54:39;13.90;99.90
7163;DHT22;3623;47.098;15.446;2022-11-25T10:57:17;14.50;99.90
7163;DHT22;3623;47.098;15.446;2022-11-25T10:59:57;14.90;99.90
7163;DHT22;3623;47.098;15.446;2022-11-25T11:02:26;14.70;99.90
7163;DHT22;3623;47.098;15.446;2022-11-25T11:04:56;14.90;99.90
7163;DHT22;3623;47.098;15.446;2022-11-25T11:07:27;15.20;99.90
7163;DHT22;3623;47.098;15.446;2022-11-25T11:10:16;15.40;99.90
7163;DHT22;3623;47.098;15.446;2022-11-25T11:12:54;15.50;99.90
7163;DHT22;3623;47.098;15.446;2022-11-25T11:15:23;15.70;99.90
7163;DHT22;3623;47.098;15.446;2022-11-25T11:17:51;16.00;99.90
7163;DHT22;3623;47.098;15.446;2022-11-25T11:20:21;16.20;99.90
7163;DHT22;3623;47.098;15.446;2022-11-25T11:22:55;16.10;99.90
7163;DHT22;3623;47.098;15.446;2022-11-25T11:25:29;16.00;99.90
7163;DHT22;3623;47.098;15.446;2022-11-25T11:27:57;16.90;99.90
7163;DHT22;3623;47.098;15.446;2022-11-25T11:30:26;17.50;99.90
7163;DHT22;3623;47.098;15.446;2022-11-25T11:32:57;17.20;99.90
7163;DHT22;3623;47.098;15.446;2022-11-25T11:35:40;17.20;99.90
7163;DHT22;3623;47.098;15.446;2022-11-25T11:38:24;17.50;99.90
7163;DHT22;3623;47.098;15.446;2022-11-25T11:40:55;17.80;99.00
7163;DHT22;3623;47.098;15.446;2022-11-25T11:43:40;17.40;99.70
7163;DHT22;3623;47.098;15.446;2022-11-25T11:46:22;17.80;99.90
7163;DHT22;3623;47.098;15.446;2022-11-25T11:48:59;17.50;99.50
7163;DHT22;3623;47.098;15.446;2022-11-25T11:51:34;18.00;99.60
7163;DHT22;3623;47.098;15.446;2022-11-25T11:54:09;18.80;99.00
7163;DHT22;3623;47.098;15.446;2022-11-25T11:56:45;17.50;98.70
7163;DHT22;3623;47.098;15.446;2022-11-25T12:02:30;18.00;97.60
7163;DHT22;3623;47.098;15.446;2022-11-25T12:05:04;18.30;97.60
7163;DHT22;3623;47.098;15.446;2022-11-25T12:07:36;18.60;97.40
7163;DHT22;3623;47.098;15.446;2022-11-25T12:10:18;18.40;97.30
7163;DHT22;3623;47.098;15.446;2022-11-25T12:12:51;18.50;96.90
7163;DHT22;3623;47.098;15.446;2022-11-25T12:15:24;19.20;96.80
7163;DHT22;3623;47.098;15.446;2022-11-25T12:17:56;18.90;96.40
7163;DHT22;3623;47.098;15.446;2022-11-25T12:20:33;19.00;96.40
7163;DHT22;3623;47.098;15.446;2022-11-25T12:23:06;19.10;96.10
7163;DHT22;3623;47.098;15.446;2022-11-25T12:25:40;19.30;95.80
7163;DHT22;3623;47.098;15.446;2022-11-25T12:28:10;18.50;95.50
7163;DHT22;3623;47.098;15.446;2022-11-25T12:30:49;18.70;95.50
7163;DHT22;3623;47.098;15.446;2022-11-25T12:33:25;17.70;96.20
7163;DHT22;3623;47.098;15.446;2022-11-25T12:36:01;17.00;95.90
7163;DHT22;3623;47.098;15.446;2022-11-25T12:38:37;16.30;97.30
7163;DHT22;3623;47.098;15.446;2022-11-25T12:41:18;15.60;97.60
7163;DHT22;3623;47.098;15.446;2022-11-25T12:43:49;15.10;97.60
7163;DHT22;3623;47.098;15.446;2022-11-25T12:46:26;13.80;99.00
7163;DHT22;3623;47.098;15.446;2022-11-25T12:48:56;13.20;99.90
7163;DHT22;3623;47.098;15.446;2022-11-25T12:51:37;12.70;99.90
7163;DHT22;3623;47.098;15.446;2022-11-25T12:54:19;12.50;99.90
7163;DHT22;3623;47.098;15.446;2022-11-25T12:57:13;12.50;99.90
7163;DHT22;3623;47.098;15.446;2022-11-25T12:59:59;12.30;99.90
7163;DHT22;3623;47.098;15.446;2022-11-25T13:08:23;11.50;99.90
7163;DHT22;3623;47.098;15.446;2022-11-25T13:11:14;11.40;99.90
7163;DHT22;3623;47.098;15.446;2022-11-25T13:13:52;11.70;99.90
7163;DHT22;3623;47.098;15.446;2022-11-25T13:16:21;11.80;99.90
7163;DHT22;3623;47.098;15.446;2022-11-25T13:18:49;11.50;99.90
7163;DHT22;3623;47.098;15.446;2022-11-25T13:21:17;11.50;99.90
7163;DHT22;3623;47.098;15.446;2022-11-25T13:23:50;11.30;99.90
7163;DHT22;3623;47.098;15.446;2022-11-25T13:26:48;10.90;99.90
7163;DHT22;3623;47.098;15.446;2022-11-25T13:32:34;10.40;99.90
7163;DHT22;3623;47.098;15.446;2022-11-25T13:35:51;10.10;99.90
7163;DHT22;3623;47.098;15.446;2022-11-25T13:38:34;9.90;99.90
7163;DHT22;3623;47.098;15.446;2022-11-25T13:41:20;9.80;99.90
7163;DHT22;3623;47.098;15.446;2022-11-25T13:43:56;9.70;99.90
7163;DHT22;3623;47.098;15.446;2022-11-25T13:46:31;9.50;99.90
7163;DHT22;3623;47.098;15.446;2022-11-25T13:49:02;9.40;99.90
7163;DHT22;3623;47.098;15.446;2022-11-25T13:51:30;9.30;99.90
7163;DHT22;3623;47.098;15.446;2022-11-25T13:54:00;9.30;99.90
7163;DHT22;3623;47.098;15.446;2022-11-25T13:56:32;9.20;99.90
7163;DHT22;3623;47.098;15.446;2022-11-25T13:59:32;9.00;99.90
7163;DHT22;3623;47.098;15.446;2022-11-25T14:02:35;8.90;99.90
7163;DHT22;3623;47.098;15.446;2022-11-25T14:07:59;8.70;99.90
7163;DHT22;3623;47.098;15.446;2022-11-25T14:10:42;8.70;99.90
7163;DHT22;3623;47.098;15.446;2022-11-25T14:13:37;8.60;99.90
7163;DHT22;3623;47.098;15.446;2022-11-25T14:16:26;8.60;99.90
7163;DHT22;3623;47.098;15.446;2022-11-25T14:19:15;8.70;99.90
7163;DHT22;3623;47.098;15.446;2022-11-25T14:22:08;8.60;99.90
7163;DHT22;3623;47.098;15.446;2022-11-25T14:24:42;8.50;99.90
7163;DHT22;3623;47.098;15.446;2022-11-25T14:27:13;8.40;99.90
7163;DHT22;3623;47.098;15.446;2022-11-25T14:29:44;8.20;99.90
7163;DHT22;3623;47.098;15.446;2022-11-25T14:32:17;8.10;99.90
7163;DHT22;3623;47.098;15.446;2022-11-25T14:34:47;8.00;99.90
7163;DHT22;3623;47.098;15.446;2022-11-25T14:37:21;7.90;99.90
7163;DHT22;3623;47.098;15.446;2022-11-25T14:39:53;7.90;99.90
7163;DHT22;3623;47.098;15.446;2022-11-25T14:42:22;7.70;99.90
7163;DHT22;3623;47.098;15.446;2022-11-25T14:44:53;7.60;99.90
7163;DHT22;3623;47.098;15.446;2022-11-25T14:47:23;7.60;99.90
7163;DHT22;3623;47.098;15.446;2022-11-25T14:49:52;7.50;99.90
7163;DHT22;3623;47.098;15.446;2022-11-25T14:52:23;7.40;99.90
7163;DHT22;3623;47.098;15.446;2022-11-25T14:54:53;7.30;99.90
7163;DHT22;3623;47.098;15.446;2022-11-25T14:57:23;7.30;99.90
7163;DHT22;3623;47.098;15.446;2022-11-25T14:59:51;7.20;99.90
7163;DHT22;3623;47.098;15.446;2022-11-25T15:02:24;7.10;99.90
7163;DHT22;3623;47.098;15.446;2022-11-25T15:04:52;7.10;99.90
7163;DHT22;3623;47.098;15.446;2022-11-25T15:07:21;7.00;99.90
7163;DHT22;3623;47.098;15.446;2022-11-25T15:09:49;7.10;99.90
7163;DHT22;3623;47.098;15.446;2022-11-25T15:12:19;7.10;99.90
7163;DHT22;3623;47.098;15.446;2022-11-25T15:14:50;7.00;99.90
7163;DHT22;3623;47.098;15.446;2022-11-25T15:17:24;7.00;99.90
7163;DHT22;3623;47.098;15.446;2022-11-25T15:19:53;7.00;99.90
7163;DHT22;3623;47.098;15.446;2022-11-25T15:22:22;6.90;99.90
7163;DHT22;3623;47.098;15.446;2022-11-25T15:24:50;6.80;99.90
7163;DHT22;3623;47.098;15.446;2022-11-25T15:27:20;6.70;99.90
7163;DHT22;3623;47.098;15.446;2022-11-25T15:29:50;6.60;99.90
7163;DHT22;3623;47.098;15.446;2022-11-25T15:32:20;6.60;99.90
7163;DHT22;3623;47.098;15.446;2022-11-25T15:34:50;6.60;99.90
7163;DHT22;3623;47.098;15.446;2022-11-25T15:37:18;6.60;99.90
7163;DHT22;3623;47.098;15.446;2022-11-25T15:39:47;6.50;99.90
7163;DHT22;3623;47.098;15.446;2022-11-25T15:42:16;6.50;99.90
7163;DHT22;3623;47.098;15.446;2022-11-25T15:44:48;6.40;99.90
7163;DHT22;3623;47.098;15.446;2022-11-25T15:47:20;6.30;99.90
7163;DHT22;3623;47.098;15.446;2022-11-25T15:49:57;6.40;99.90
7163;DHT22;3623;47.098;15.446;2022-11-25T15:52:26;6.30;99.90
7163;DHT22;3623;47.098;15.446;2022-11-25T15:54:59;6.30;99.90
7163;DHT22;3623;47.098;15.446;2022-11-25T15:57:29;6.20;99.90
7163;DHT22;3623;47.098;15.446;2022-11-25T16:00:15;6.10;99.90
7163;DHT22;3623;47.098;15.446;2022-11-25T16:02:51;6.10;99.90
7163;DHT22;3623;47.098;15.446;2022-11-25T16:05:27;6.10;99.90
7163;DHT22;3623;47.098;15.446;2022-11-25T16:10:57;6.10;99.90
7163;DHT22;3623;47.098;15.446;2022-11-25T16:13:30;6.10;99.90
7163;DHT22;3623;47.098;15.446;2022-11-25T16:16:01;6.00;99.90
7163;DHT22;3623;47.098;15.446;2022-11-25T16:18:37;6.00;99.90
7163;DHT22;3623;47.098;15.446;2022-11-25T16:21:08;6.00;99.90
7163;DHT22;3623;47.098;15.446;2022-11-25T16:23:38;6.10;99.90
7163;DHT22;3623;47.098;15.446;2022-11-25T16:26:14;6.10;99.90
7163;DHT22;3623;47.098;15.446;2022-11-25T16:28:49;6.10;99.90
7163;DHT22;3623;47.098;15.446;2022-11-25T16:31:18;6.10;99.90
7163;DHT22;3623;47.098;15.446;2022-11-25T16:33:45;6.00;99.90
7163;DHT22;3623;47.098;15.446;2022-11-25T16:36:12;6.00;99.90
7163;DHT22;3623;47.098;15.446;2022-11-25T16:38:39;5.80;99.90
7163;DHT22;3623;47.098;15.446;2022-11-25T16:41:10;5.80;99.90
7163;DHT22;3623;47.098;15.446;2022-11-25T16:43:44;5.80;99.90